Poesville, Texas
Current Conditions -  °F | °C
As of 3:55 AM on Friday 24 Oct 2014 (Local Time) from KCPT Reporting Station
Few Clouds Few Clouds  
Wind Chill: 17°   Ceiling: Unl
Heat Index: 17°   Visibility: 10mi
Dew Point: 14°   Wind: 7mph
Humidity: 82%   Direction: 170°S
Pressure: 30.13"   Gusts: NA
Location:  32.0481°N, 97.6449°W
Report Text: KCPT 240855Z AUTO 17006KT 10SM FEW060 17/14 A3013 RMK AO2
Loading
Personal Weather Stations






























Interactive Weather Map
Tropical Storm Tracking
New forecast layout! Learn more

10-Day Weather Forecast

Advertisements
Track Severe Weather on mobile